sensor_id;sensor_type;location;lat;lon;timestamp;pressure;altitude;pressure_sealevel;temperature;humidity
25510;BME280;13413;52.336;21.200;2023-02-14T00:02:53;101965.60;;;8.97;58.64
25510;BME280;13413;52.336;21.200;2023-02-14T00:05:47;101965.12;;;8.99;58.55
25510;BME280;13413;52.336;21.200;2023-02-14T00:08:41;101968.52;;;9.00;58.61
25510;BME280;13413;52.336;21.200;2023-02-14T00:11:36;101969.77;;;8.98;58.58
25510;BME280;13413;52.336;21.200;2023-02-14T00:14:33;101977.67;;;8.96;58.57
25510;BME280;13413;52.336;21.200;2023-02-14T00:17:27;101982.02;;;8.97;58.60
25510;BME280;13413;52.336;21.200;2023-02-14T00:20:22;101978.41;;;9.00;58.55
25510;BME280;13413;52.336;21.200;2023-02-14T00:23:14;101979.52;;;9.02;58.57
25510;BME280;13413;52.336;21.200;2023-02-14T00:26:13;101972.46;;;9.00;58.52
25510;BME280;13413;52.336;21.200;2023-02-14T00:29:08;101975.86;;;8.97;58.71
25510;BME280;13413;52.336;21.200;2023-02-14T00:32:00;101979.12;;;8.87;58.69
25510;BME280;13413;52.336;21.200;2023-02-14T00:40:44;101976.79;;;8.90;58.83
25510;BME280;13413;52.336;21.200;2023-02-14T00:43:38;101982.98;;;8.86;58.74
25510;BME280;13413;52.336;21.200;2023-02-14T00:46:32;101982.80;;;8.83;58.91
25510;BME280;13413;52.336;21.200;2023-02-14T00:49:26;101985.21;;;8.84;58.90
25510;BME280;13413;52.336;21.200;2023-02-14T00:52:20;101989.49;;;8.88;58.94
25510;BME280;13413;52.336;21.200;2023-02-14T00:55:15;102002.63;;;8.92;58.80
25510;BME280;13413;52.336;21.200;2023-02-14T00:58:09;102000.23;;;8.90;58.81
25510;BME280;13413;52.336;21.200;2023-02-14T01:01:04;101996.92;;;8.88;58.88
25510;BME280;13413;52.336;21.200;2023-02-14T01:03:59;101991.66;;;8.83;58.91
25510;BME280;13413;52.336;21.200;2023-02-14T01:06:53;101991.48;;;8.81;58.93
25510;BME280;13413;52.336;21.200;2023-02-14T01:09:47;101993.84;;;8.80;59.01
25510;BME280;13413;52.336;21.200;2023-02-14T01:12:41;101992.15;;;8.81;59.06
25510;BME280;13413;52.336;21.200;2023-02-14T01:15:39;101987.38;;;8.79;59.13
25510;BME280;13413;52.336;21.200;2023-02-14T01:18:33;101986.88;;;8.79;59.09
25510;BME280;13413;52.336;21.200;2023-02-14T01:21:29;101983.97;;;8.73;59.21
25510;BME280;13413;52.336;21.200;2023-02-14T01:24:24;101976.02;;;8.67;59.26
25510;BME280;13413;52.336;21.200;2023-02-14T01:27:18;101978.98;;;8.63;59.31
25510;BME280;13413;52.336;21.200;2023-02-14T01:30:14;101981.98;;;8.65;59.49
25510;BME280;13413;52.336;21.200;2023-02-14T01:33:09;101987.20;;;8.62;59.56
25510;BME280;13413;52.336;21.200;2023-02-14T01:36:03;101985.27;;;8.62;59.57
25510;BME280;13413;52.336;21.200;2023-02-14T01:39:00;101989.67;;;8.58;59.74
25510;BME280;13413;52.336;21.200;2023-02-14T01:41:54;101990.35;;;8.58;59.72
25510;BME280;13413;52.336;21.200;2023-02-14T01:45:03;101990.99;;;8.59;59.71
25510;BME280;13413;52.336;21.200;2023-02-14T01:47:58;101992.56;;;8.61;59.75
25510;BME280;13413;52.336;21.200;2023-02-14T01:50:54;101997.98;;;8.57;59.85
25510;BME280;13413;52.336;21.200;2023-02-14T01:53:50;101993.20;;;8.55;59.92
25510;BME280;13413;52.336;21.200;2023-02-14T01:56:47;101995.23;;;8.54;59.93
25510;BME280;13413;52.336;21.200;2023-02-14T01:59:46;101992.66;;;8.55;60.01
25510;BME280;13413;52.336;21.200;2023-02-14T02:02:44;101995.42;;;8.54;59.93
25510;BME280;13413;52.336;21.200;2023-02-14T02:05:40;102000.35;;;8.56;59.93
25510;BME280;13413;52.336;21.200;2023-02-14T02:08:58;101996.48;;;8.54;59.94
25510;BME280;13413;52.336;21.200;2023-02-14T02:11:55;101994.93;;;8.54;60.15
25510;BME280;13413;52.336;21.200;2023-02-14T02:14:49;101987.91;;;8.49;60.18
25510;BME280;13413;52.336;21.200;2023-02-14T02:18:09;101989.42;;;8.48;60.20
25510;BME280;13413;52.336;21.200;2023-02-14T02:21:39;101991.53;;;8.50;60.21
25510;BME280;13413;52.336;21.200;2023-02-14T02:24:49;101993.21;;;8.47;60.35
25510;BME280;13413;52.336;21.200;2023-02-14T02:28:09;101994.72;;;8.45;60.37
25510;BME280;13413;52.336;21.200;2023-02-14T02:31:36;101994.43;;;8.44;60.42
25510;BME280;13413;52.336;21.200;2023-02-14T02:35:10;101993.34;;;8.47;60.35
25510;BME280;13413;52.336;21.200;2023-02-14T02:38:21;101989.19;;;8.39;60.34
25510;BME280;13413;52.336;21.200;2023-02-14T02:41:25;101987.37;;;8.31;60.54
25510;BME280;13413;52.336;21.200;2023-02-14T02:44:32;101990.49;;;8.32;60.53
25510;BME280;13413;52.336;21.200;2023-02-14T02:47:35;101997.59;;;8.31;60.67
25510;BME280;13413;52.336;21.200;2023-02-14T02:50:30;102002.75;;;8.35;60.66
25510;BME280;13413;52.336;21.200;2023-02-14T02:53:24;102005.32;;;8.38;60.51
25510;BME280;13413;52.336;21.200;2023-02-14T03:01:34;102009.41;;;8.36;60.48
25510;BME280;13413;52.336;21.200;2023-02-14T03:04:30;102009.77;;;8.33;60.59
25510;BME280;13413;52.336;21.200;2023-02-14T03:07:33;102014.73;;;8.30;60.62
25510;BME280;13413;52.336;21.200;2023-02-14T03:10:31;102016.47;;;8.31;60.61
25510;BME280;13413;52.336;21.200;2023-02-14T03:17:21;102015.99;;;8.34;60.58
25510;BME280;13413;52.336;21.200;2023-02-14T03:20:22;102022.89;;;8.34;60.49
25510;BME280;13413;52.336;21.200;2023-02-14T03:23:21;102020.20;;;8.30;60.51
25510;BME280;13413;52.336;21.200;2023-02-14T03:26:18;102021.88;;;8.27;60.60
25510;BME280;13413;52.336;21.200;2023-02-14T03:29:18;102018.89;;;8.27;60.62
25510;BME280;13413;52.336;21.200;2023-02-14T03:32:20;102016.27;;;8.24;60.47
25510;BME280;13413;52.336;21.200;2023-02-14T03:35:21;102023.98;;;8.14;60.77
25510;BME280;13413;52.336;21.200;2023-02-14T03:38:21;102026.23;;;8.18;60.75
25510;BME280;13413;52.336;21.200;2023-02-14T03:41:21;102020.27;;;8.18;60.73
25510;BME280;13413;52.336;21.200;2023-02-14T03:44:20;102027.40;;;8.17;60.71
25510;BME280;13413;52.336;21.200;2023-02-14T03:47:17;102033.59;;;8.17;60.83
25510;BME280;13413;52.336;21.200;2023-02-14T03:50:16;102030.05;;;8.15;60.97
25510;BME280;13413;52.336;21.200;2023-02-14T03:53:16;102037.08;;;8.08;60.99
25510;BME280;13413;52.336;21.200;2023-02-14T03:56:33;102033.70;;;8.04;60.99
25510;BME280;13413;52.336;21.200;2023-02-14T03:59:30;102029.20;;;8.01;60.99
25510;BME280;13413;52.336;21.200;2023-02-14T04:02:28;102032.68;;;7.99;61.19
25510;BME280;13413;52.336;21.200;2023-02-14T04:05:26;102032.98;;;8.02;61.05
25510;BME280;13413;52.336;21.200;2023-02-14T04:08:26;102030.88;;;7.95;61.33
25510;BME280;13413;52.336;21.200;2023-02-14T04:11:20;102031.64;;;7.90;61.33
25510;BME280;13413;52.336;21.200;2023-02-14T04:14:17;102035.56;;;7.92;61.26
25510;BME280;13413;52.336;21.200;2023-02-14T04:17:11;102036.92;;;7.92;61.28
25510;BME280;13413;52.336;21.200;2023-02-14T04:20:06;102031.11;;;7.87;61.34
25510;BME280;13413;52.336;21.200;2023-02-14T04:23:00;102033.88;;;7.86;61.47
25510;BME280;13413;52.336;21.200;2023-02-14T04:25:54;102037.52;;;7.89;61.50
25510;BME280;13413;52.336;21.200;2023-02-14T04:28:48;102043.95;;;7.90;61.43
25510;BME280;13413;52.336;21.200;2023-02-14T04:31:42;102051.14;;;7.90;61.46
25510;BME280;13413;52.336;21.200;2023-02-14T04:34:37;102051.70;;;7.85;61.49
25510;BME280;13413;52.336;21.200;2023-02-14T04:37:31;102050.65;;;7.81;61.73
25510;BME280;13413;52.336;21.200;2023-02-14T04:40:25;102054.67;;;7.79;61.66
25510;BME280;13413;52.336;21.200;2023-02-14T04:43:19;102057.91;;;7.83;61.60
25510;BME280;13413;52.336;21.200;2023-02-14T04:46:13;102056.34;;;7.85;61.62
25510;BME280;13413;52.336;21.200;2023-02-14T04:49:07;102058.62;;;7.83;61.73
25510;BME280;13413;52.336;21.200;2023-02-14T04:52:01;102057.55;;;7.83;61.66
25510;BME280;13413;52.336;21.200;2023-02-14T04:54:55;102059.88;;;7.87;61.71
25510;BME280;13413;52.336;21.200;2023-02-14T04:57:49;102057.20;;;7.85;61.62
25510;BME280;13413;52.336;21.200;2023-02-14T05:00:43;102063.42;;;7.86;61.68
25510;BME280;13413;52.336;21.200;2023-02-14T05:03:37;102066.28;;;7.86;61.73
25510;BME280;13413;52.336;21.200;2023-02-14T05:06:31;102062.63;;;7.83;61.74
25510;BME280;13413;52.336;21.200;2023-02-14T05:09:24;102071.11;;;7.80;61.88
25510;BME280;13413;52.336;21.200;2023-02-14T05:12:17;102078.10;;;7.81;61.95
25510;BME280;13413;52.336;21.200;2023-02-14T05:21:22;102073.55;;;7.81;61.98
25510;BME280;13413;52.336;21.200;2023-02-14T05:24:17;102077.83;;;7.78;62.04
25510;BME280;13413;52.336;21.200;2023-02-14T05:27:11;102081.09;;;7.76;62.04
25510;BME280;13413;52.336;21.200;2023-02-14T05:30:07;102078.14;;;7.76;62.05
25510;BME280;13413;52.336;21.200;2023-02-14T05:33:00;102082.05;;;7.78;62.09
25510;BME280;13413;52.336;21.200;2023-02-14T05:35:55;102086.30;;;7.80;62.08
25510;BME280;13413;52.336;21.200;2023-02-14T05:38:51;102082.65;;;7.77;62.12
25510;BME280;13413;52.336;21.200;2023-02-14T05:41:45;102081.56;;;7.77;62.16
25510;BME280;13413;52.336;21.200;2023-02-14T05:44:39;102084.30;;;7.76;62.23
25510;BME280;13413;52.336;21.200;2023-02-14T05:47:36;102077.03;;;7.74;62.23
25510;BME280;13413;52.336;21.200;2023-02-14T05:50:30;102075.14;;;7.69;62.29
25510;BME280;13413;52.336;21.200;2023-02-14T05:53:24;102074.23;;;7.67;62.42
25510;BME280;13413;52.336;21.200;2023-02-14T05:56:19;102081.45;;;7.69;62.38
25510;BME280;13413;52.336;21.200;2023-02-14T05:59:13;102079.98;;;7.70;62.40
25510;BME280;13413;52.336;21.200;2023-02-14T06:02:06;102083.34;;;7.70;62.48
25510;BME280;13413;52.336;21.200;2023-02-14T06:05:01;102096.88;;;7.66;62.55
25510;BME280;13413;52.336;21.200;2023-02-14T06:07:55;102096.35;;;7.63;62.66
25510;BME280;13413;52.336;21.200;2023-02-14T06:10:49;102102.07;;;7.60;62.61
25510;BME280;13413;52.336;21.200;2023-02-14T06:13:44;102102.17;;;7.61;62.66
25510;BME280;13413;52.336;21.200;2023-02-14T06:16:41;102107.05;;;7.64;62.57
25510;BME280;13413;52.336;21.200;2023-02-14T06:22:43;102107.43;;;7.56;62.82
25510;BME280;13413;52.336;21.200;2023-02-14T06:25:37;102111.03;;;7.62;62.73
25510;BME280;13413;52.336;21.200;2023-02-14T06:28:31;102114.23;;;7.62;62.79
25510;BME280;13413;52.336;21.200;2023-02-14T06:31:25;102114.66;;;7.64;62.78
25510;BME280;13413;52.336;21.200;2023-02-14T06:34:20;102113.76;;;7.68;62.77
25510;BME280;13413;52.336;21.200;2023-02-14T06:37:13;102110.91;;;7.66;62.80
25510;BME280;13413;52.336;21.200;2023-02-14T06:40:10;102115.30;;;7.62;62.68
25510;BME280;13413;52.336;21.200;2023-02-14T06:43:04;102114.84;;;7.66;62.72
25510;BME280;13413;52.336;21.200;2023-02-14T06:45:59;102114.65;;;7.66;62.69
25510;BME280;13413;52.336;21.200;2023-02-14T06:48:53;102113.20;;;7.59;62.86
25510;BME280;13413;52.336;21.200;2023-02-14T06:51:47;102110.33;;;7.56;62.84
25510;BME280;13413;52.336;21.200;2023-02-14T06:57:49;102112.32;;;7.59;62.80
25510;BME280;13413;52.336;21.200;2023-02-14T07:00:57;102119.14;;;7.60;62.87
25510;BME280;13413;52.336;21.200;2023-02-14T07:03:51;102119.38;;;7.62;62.93
25510;BME280;13413;52.336;21.200;2023-02-14T07:06:59;102123.79;;;7.59;63.08
25510;BME280;13413;52.336;21.200;2023-02-14T07:09:52;102126.06;;;7.62;63.07
25510;BME280;13413;52.336;21.200;2023-02-14T07:12:46;102131.36;;;7.64;62.91
25510;BME280;13413;52.336;21.200;2023-02-14T07:15:41;102131.45;;;7.70;63.02
25510;BME280;13413;52.336;21.200;2023-02-14T07:18:34;102132.06;;;7.68;62.97
25510;BME280;13413;52.336;21.200;2023-02-14T07:21:28;102130.65;;;7.69;62.92
25510;BME280;13413;52.336;21.200;2023-02-14T07:24:23;102133.52;;;7.70;62.98
25510;BME280;13413;52.336;21.200;2023-02-14T07:27:16;102139.95;;;7.73;62.78
25510;BME280;13413;52.336;21.200;2023-02-14T07:30:12;102143.01;;;7.77;62.81
25510;BME280;13413;52.336;21.200;2023-02-14T07:41:07;102155.21;;;7.74;62.99
25510;BME280;13413;52.336;21.200;2023-02-14T07:44:01;102161.82;;;7.73;63.00
25510;BME280;13413;52.336;21.200;2023-02-14T07:46:56;102166.23;;;7.76;63.04
25510;BME280;13413;52.336;21.200;2023-02-14T07:52:58;102165.96;;;7.86;62.96
25510;BME280;13413;52.336;21.200;2023-02-14T07:55:51;102167.17;;;7.86;62.95
25510;BME280;13413;52.336;21.200;2023-02-14T07:58:45;102172.48;;;7.88;62.87
25510;BME280;13413;52.336;21.200;2023-02-14T08:01:40;102173.82;;;7.89;62.92
25510;BME280;13413;52.336;21.200;2023-02-14T08:07:26;102176.67;;;7.96;62.82
25510;BME280;13413;52.336;21.200;2023-02-14T08:10:21;102180.44;;;7.88;62.72
25510;BME280;13413;52.336;21.200;2023-02-14T08:13:15;102182.88;;;7.86;62.73
25510;BME280;13413;52.336;21.200;2023-02-14T08:16:09;102184.29;;;7.86;62.67
25510;BME280;13413;52.336;21.200;2023-02-14T08:19:03;102183.80;;;7.85;62.74
25510;BME280;13413;52.336;21.200;2023-02-14T08:21:59;102188.41;;;7.85;62.71
25510;BME280;13413;52.336;21.200;2023-02-14T08:24:53;102191.94;;;7.85;62.72
25510;BME280;13413;52.336;21.200;2023-02-14T08:27:47;102191.72;;;7.88;62.83
25510;BME280;13413;52.336;21.200;2023-02-14T08:30:41;102191.08;;;7.92;62.69
25510;BME280;13413;52.336;21.200;2023-02-14T08:33:34;102189.71;;;7.91;62.69
25510;BME280;13413;52.336;21.200;2023-02-14T08:36:28;102196.01;;;7.89;62.62
25510;BME280;13413;52.336;21.200;2023-02-14T08:39:23;102185.42;;;7.89;62.60
25510;BME280;13413;52.336;21.200;2023-02-14T08:42:17;102192.51;;;7.92;62.65
25510;BME280;13413;52.336;21.200;2023-02-14T08:45:11;102190.41;;;7.96;62.65
25510;BME280;13413;52.336;21.200;2023-02-14T08:48:07;102195.79;;;7.97;62.55
25510;BME280;13413;52.336;21.200;2023-02-14T08:51:05;102197.91;;;7.97;62.54
25510;BME280;13413;52.336;21.200;2023-02-14T08:54:00;102202.34;;;8.01;62.54
25510;BME280;13413;52.336;21.200;2023-02-14T08:56:53;102204.42;;;8.04;62.60
25510;BME280;13413;52.336;21.200;2023-02-14T08:59:48;102200.38;;;8.13;62.58
25510;BME280;13413;52.336;21.200;2023-02-14T09:02:41;102195.95;;;8.21;62.41
25510;BME280;13413;52.336;21.200;2023-02-14T09:05:36;102203.14;;;8.30;62.39
25510;BME280;13413;52.336;21.200;2023-02-14T09:08:30;102207.88;;;8.35;62.22
25510;BME280;13413;52.336;21.200;2023-02-14T09:11:25;102202.20;;;8.36;62.11
25510;BME280;13413;52.336;21.200;2023-02-14T09:14:19;102205.00;;;8.39;62.17
25510;BME280;13413;52.336;21.200;2023-02-14T09:17:14;102205.98;;;8.40;62.25
25510;BME280;13413;52.336;21.200;2023-02-14T09:20:22;102203.70;;;8.40;62.15
25510;BME280;13413;52.336;21.200;2023-02-14T09:23:17;102198.63;;;8.42;61.98
25510;BME280;13413;52.336;21.200;2023-02-14T09:26:10;102204.27;;;8.46;62.00
25510;BME280;13413;52.336;21.200;2023-02-14T09:29:05;102213.06;;;8.49;61.97
25510;BME280;13413;52.336;21.200;2023-02-14T09:32:00;102210.17;;;8.54;62.18
25510;BME280;13413;52.336;21.200;2023-02-14T09:34:55;102211.31;;;8.60;62.22
25510;BME280;13413;52.336;21.200;2023-02-14T09:37:48;102218.66;;;8.68;61.81
25510;BME280;13413;52.336;21.200;2023-02-14T09:40:43;102214.08;;;8.61;61.78
25510;BME280;13413;52.336;21.200;2023-02-14T09:43:40;102216.30;;;8.61;61.73
25510;BME280;13413;52.336;21.200;2023-02-14T09:46:41;102215.77;;;8.64;61.71
25510;BME280;13413;52.336;21.200;2023-02-14T09:49:39;102215.99;;;8.68;61.74
25510;BME280;13413;52.336;21.200;2023-02-14T09:52:32;102214.79;;;8.76;61.65
25510;BME280;13413;52.336;21.200;2023-02-14T10:01:37;102214.90;;;9.02;61.60
25510;BME280;13413;52.336;21.200;2023-02-14T10:04:39;102210.50;;;9.13;61.50
25510;BME280;13413;52.336;21.200;2023-02-14T10:07:43;102211.31;;;9.09;61.19
25510;BME280;13413;52.336;21.200;2023-02-14T10:10:43;102212.59;;;9.09;61.24
25510;BME280;13413;52.336;21.200;2023-02-14T10:13:41;102213.84;;;9.18;61.31
25510;BME280;13413;52.336;21.200;2023-02-14T10:16:41;102211.85;;;9.23;61.13
25510;BME280;13413;52.336;21.200;2023-02-14T10:19:39;102207.85;;;9.22;60.91
25510;BME280;13413;52.336;21.200;2023-02-14T10:22:40;102208.86;;;9.18;60.72
25510;BME280;13413;52.336;21.200;2023-02-14T10:25:41;102210.37;;;9.17;60.95
25510;BME280;13413;52.336;21.200;2023-02-14T10:28:41;102209.57;;;9.22;61.09
25510;BME280;13413;52.336;21.200;2023-02-14T10:31:40;102210.30;;;9.29;61.00
25510;BME280;13413;52.336;21.200;2023-02-14T10:34:42;102211.27;;;9.37;60.91
25510;BME280;13413;52.336;21.200;2023-02-14T10:37:50;102214.42;;;9.37;60.72
25510;BME280;13413;52.336;21.200;2023-02-14T10:41:09;102218.65;;;9.30;60.77
25510;BME280;13413;52.336;21.200;2023-02-14T10:44:16;102222.42;;;9.25;60.76
25510;BME280;13413;52.336;21.200;2023-02-14T10:47:27;102215.12;;;9.13;60.69
25510;BME280;13413;52.336;21.200;2023-02-14T10:50:34;102211.39;;;9.06;60.77
25510;BME280;13413;52.336;21.200;2023-02-14T10:53:39;102214.64;;;9.08;60.67
25510;BME280;13413;52.336;21.200;2023-02-14T10:56:39;102212.16;;;9.10;60.81
25510;BME280;13413;52.336;21.200;2023-02-14T10:59:43;102211.83;;;9.12;60.91
25510;BME280;13413;52.336;21.200;2023-02-14T11:02:42;102209.98;;;9.11;61.03
25510;BME280;13413;52.336;21.200;2023-02-14T11:05:40;102216.88;;;9.11;60.89
25510;BME280;13413;52.336;21.200;2023-02-14T11:08:37;102212.64;;;9.13;60.94
25510;BME280;13413;52.336;21.200;2023-02-14T11:11:36;102208.91;;;9.09;60.94
25510;BME280;13413;52.336;21.200;2023-02-14T11:14:33;102214.69;;;9.25;61.00
25510;BME280;13413;52.336;21.200;2023-02-14T11:17:30;102211.91;;;9.33;60.55
25510;BME280;13413;52.336;21.200;2023-02-14T11:20:26;102207.05;;;9.32;60.63
25510;BME280;13413;52.336;21.200;2023-02-14T11:23:23;102209.39;;;9.36;60.35
25510;BME280;13413;52.336;21.200;2023-02-14T11:26:23;102207.33;;;9.20;60.28
25510;BME280;13413;52.336;21.200;2023-02-14T11:29:22;102208.85;;;9.23;60.49
25510;BME280;13413;52.336;21.200;2023-02-14T11:32:22;102207.52;;;9.28;60.38
25510;BME280;13413;52.336;21.200;2023-02-14T11:35:20;102200.20;;;9.27;60.37
25510;BME280;13413;52.336;21.200;2023-02-14T11:38:27;102200.48;;;9.33;60.38
25510;BME280;13413;52.336;21.200;2023-02-14T11:41:22;102194.66;;;9.32;60.42
25510;BME280;13413;52.336;21.200;2023-02-14T11:44:19;102193.50;;;9.40;60.52
25510;BME280;13413;52.336;21.200;2023-02-14T11:47:26;102192.39;;;9.45;60.18
25510;BME280;13413;52.336;21.200;2023-02-14T11:50:23;102186.88;;;9.48;60.09
25510;BME280;13413;52.336;21.200;2023-02-14T11:53:22;102185.19;;;9.51;60.25
25510;BME280;13413;52.336;21.200;2023-02-14T11:56:19;102185.41;;;9.53;60.13
25510;BME280;13413;52.336;21.200;2023-02-14T11:59:21;102190.89;;;9.49;59.98
25510;BME280;13413;52.336;21.200;2023-02-14T12:02:28;102186.42;;;9.36;60.11
25510;BME280;13413;52.336;21.200;2023-02-14T12:05:27;102187.77;;;9.43;60.14
25510;BME280;13413;52.336;21.200;2023-02-14T12:08:27;102180.89;;;9.58;60.20
25510;BME280;13413;52.336;21.200;2023-02-14T12:11:21;102173.23;;;9.74;60.22
25510;BME280;13413;52.336;21.200;2023-02-14T12:17:10;102168.10;;;10.14;59.88
25510;BME280;13413;52.336;21.200;2023-02-14T12:20:11;102168.30;;;10.08;59.36
25510;BME280;13413;52.336;21.200;2023-02-14T12:23:12;102168.28;;;9.98;59.49
25510;BME280;13413;52.336;21.200;2023-02-14T12:26:14;102168.45;;;9.98;59.37
25510;BME280;13413;52.336;21.200;2023-02-14T12:29:14;102165.88;;;9.90;59.28
25510;BME280;13413;52.336;21.200;2023-02-14T12:32:19;102163.86;;;9.89;59.49
25510;BME280;13413;52.336;21.200;2023-02-14T12:35:17;102165.32;;;9.91;59.49
25510;BME280;13413;52.336;21.200;2023-02-14T12:38:16;102166.22;;;9.88;59.32
25510;BME280;13413;52.336;21.200;2023-02-14T12:41:25;102162.80;;;9.83;59.32
25510;BME280;13413;52.336;21.200;2023-02-14T12:44:32;102164.70;;;9.75;59.27
25510;BME280;13413;52.336;21.200;2023-02-14T12:47:38;102159.71;;;9.69;59.29
25510;BME280;13413;52.336;21.200;2023-02-14T12:50:44;102155.50;;;9.68;59.38
25510;BME280;13413;52.336;21.200;2023-02-14T12:54:01;102155.91;;;9.74;59.25
25510;BME280;13413;52.336;21.200;2023-02-14T12:57:00;102149.27;;;9.75;59.31
25510;BME280;13413;52.336;21.200;2023-02-14T13:00:05;102149.31;;;9.82;59.28
25510;BME280;13413;52.336;21.200;2023-02-14T13:03:32;102145.30;;;9.92;59.24
25510;BME280;13413;52.336;21.200;2023-02-14T13:06:34;102148.52;;;9.99;59.04
25510;BME280;13413;52.336;21.200;2023-02-14T13:09:35;102145.67;;;10.08;59.09
25510;BME280;13413;52.336;21.200;2023-02-14T13:12:36;102150.30;;;10.07;58.95
25510;BME280;13413;52.336;21.200;2023-02-14T13:15:38;102150.67;;;10.03;58.96
25510;BME280;13413;52.336;21.200;2023-02-14T13:18:44;102149.72;;;10.08;59.11
25510;BME280;13413;52.336;21.200;2023-02-14T13:21:43;102154.25;;;10.19;58.97
25510;BME280;13413;52.336;21.200;2023-02-14T13:24:41;102156.34;;;10.24;58.74
25510;BME280;13413;52.336;21.200;2023-02-14T13:27:39;102157.26;;;10.22;58.83
25510;BME280;13413;52.336;21.200;2023-02-14T13:30:35;102159.09;;;10.21;58.69
25510;BME280;13413;52.336;21.200;2023-02-14T13:33:33;102159.90;;;10.11;58.60
25510;BME280;13413;52.336;21.200;2023-02-14T13:36:28;102163.02;;;10.10;58.82
25510;BME280;13413;52.336;21.200;2023-02-14T13:39:28;102162.52;;;10.13;58.82
25510;BME280;13413;52.336;21.200;2023-02-14T13:46:03;102164.52;;;10.13;58.64
25510;BME280;13413;52.336;21.200;2023-02-14T13:49:04;102156.70;;;10.11;58.65
25510;BME280;13413;52.336;21.200;2023-02-14T13:52:10;102154.48;;;10.06;58.72
25510;BME280;13413;52.336;21.200;2023-02-14T13:55:07;102148.82;;;10.00;58.50
25510;BME280;13413;52.336;21.200;2023-02-14T13:58:13;102150.21;;;9.96;58.61
25510;BME280;13413;52.336;21.200;2023-02-14T14:01:32;102155.41;;;10.01;58.91
25510;BME280;13413;52.336;21.200;2023-02-14T14:04:36;102152.17;;;10.06;58.68
25510;BME280;13413;52.336;21.200;2023-02-14T14:07:31;102149.83;;;10.07;58.79
25510;BME280;13413;52.336;21.200;2023-02-14T14:10:42;102150.50;;;10.16;58.60
25510;BME280;13413;52.336;21.200;2023-02-14T14:13:57;102150.11;;;10.20;58.69
25510;BME280;13413;52.336;21.200;2023-02-14T14:16:58;102149.21;;;10.18;58.58
25510;BME280;13413;52.336;21.200;2023-02-14T14:19:54;102151.65;;;10.17;58.47
25510;BME280;13413;52.336;21.200;2023-02-14T14:22:49;102144.69;;;10.15;58.61
25510;BME280;13413;52.336;21.200;2023-02-14T14:25:45;102142.57;;;10.24;58.81
25510;BME280;13413;52.336;21.200;2023-02-14T14:28:37;102141.84;;;10.41;58.74
25510;BME280;13413;52.336;21.200;2023-02-14T14:40:37;102146.16;;;10.40;58.14
25510;BME280;13413;52.336;21.200;2023-02-14T14:43:32;102154.71;;;10.35;58.38
25510;BME280;13413;52.336;21.200;2023-02-14T14:46:26;102160.49;;;10.36;58.38
25510;BME280;13413;52.336;21.200;2023-02-14T14:49:21;102160.50;;;10.31;58.36
25510;BME280;13413;52.336;21.200;2023-02-14T14:52:27;102157.56;;;10.20;58.49
25510;BME280;13413;52.336;21.200;2023-02-14T14:55:24;102159.05;;;10.21;58.55
25510;BME280;13413;52.336;21.200;2023-02-14T14:58:36;102160.70;;;10.29;58.49
25510;BME280;13413;52.336;21.200;2023-02-14T15:01:34;102158.61;;;10.37;58.61
25510;BME280;13413;52.336;21.200;2023-02-14T15:04:31;102156.25;;;10.48;58.47
25510;BME280;13413;52.336;21.200;2023-02-14T15:07:32;102153.44;;;10.50;58.29
25510;BME280;13413;52.336;21.200;2023-02-14T15:10:29;102156.95;;;10.48;58.21
25510;BME280;13413;52.336;21.200;2023-02-14T15:13:31;102158.75;;;10.44;58.28
25510;BME280;13413;52.336;21.200;2023-02-14T15:16:31;102158.11;;;10.35;58.38
25510;BME280;13413;52.336;21.200;2023-02-14T15:19:30;102157.21;;;10.31;58.49
25510;BME280;13413;52.336;21.200;2023-02-14T15:22:27;102159.98;;;10.21;58.46
25510;BME280;13413;52.336;21.200;2023-02-14T15:25:24;102160.63;;;10.11;58.54
25510;BME280;13413;52.336;21.200;2023-02-14T15:28:29;102156.77;;;10.04;58.67
25510;BME280;13413;52.336;21.200;2023-02-14T15:31:26;102157.50;;;10.02;58.67
25510;BME280;13413;52.336;21.200;2023-02-14T15:34:24;102155.43;;;9.95;58.73
25510;BME280;13413;52.336;21.200;2023-02-14T15:37:21;102156.98;;;9.91;58.82
25510;BME280;13413;52.336;21.200;2023-02-14T15:43:27;102157.33;;;9.74;58.93
25510;BME280;13413;52.336;21.200;2023-02-14T15:46:30;102157.63;;;9.70;59.09
25510;BME280;13413;52.336;21.200;2023-02-14T15:49:32;102156.77;;;9.70;59.15
25510;BME280;13413;52.336;21.200;2023-02-14T15:52:27;102155.70;;;9.64;59.07
25510;BME280;13413;52.336;21.200;2023-02-14T15:55:25;102160.26;;;9.53;59.30
25510;BME280;13413;52.336;21.200;2023-02-14T15:58:21;102164.86;;;9.47;59.31
25510;BME280;13413;52.336;21.200;2023-02-14T16:01:20;102169.81;;;9.43;59.26
25510;BME280;13413;52.336;21.200;2023-02-14T16:04:14;102165.13;;;9.35;59.47
25510;BME280;13413;52.336;21.200;2023-02-14T16:07:22;102170.29;;;9.28;59.43
25510;BME280;13413;52.336;21.200;2023-02-14T16:10:23;102183.27;;;9.27;59.57
25510;BME280;13413;52.336;21.200;2023-02-14T16:13:21;102184.55;;;9.24;59.72
25510;BME280;13413;52.336;21.200;2023-02-14T16:16:21;102190.40;;;9.24;59.63
25510;BME280;13413;52.336;21.200;2023-02-14T16:19:32;102194.16;;;9.17;59.78
25510;BME280;13413;52.336;21.200;2023-02-14T16:22:27;102193.58;;;9.11;59.84
25510;BME280;13413;52.336;21.200;2023-02-14T16:25:21;102195.85;;;9.04;60.16
25510;BME280;13413;52.336;21.200;2023-02-14T16:28:15;102198.09;;;8.99;60.25
25510;BME280;13413;52.336;21.200;2023-02-14T16:31:14;102198.00;;;8.97;60.32
25510;BME280;13413;52.336;21.200;2023-02-14T16:34:09;102199.33;;;8.94;60.36
25510;BME280;13413;52.336;21.200;2023-02-14T16:40:15;102203.84;;;8.91;60.56